Sachse, Texas
Current Conditions -  °F | °C
As of 6:55 PM on Saturday 22 Nov 2014 (Local Time) from KF46 Reporting Station
Moderate Rain Moderate Rain  
Wind Chill: 62°   Ceiling: 800
Heat Index: 62°   Visibility: 7mi
Dew Point: 61°   Wind: 6mph
Humidity: 97%   Direction: 180°S
Pressure: 29.86"   Gusts: NA
Location:  32.9674°N, 96.5785°W
Report Text: KF46 230055Z AUTO 18005KT 7SM RA BKN008 OVC090 17/16 A2986 RMK AO2 LTG DSNT S P0006 T01650160
Loading
Personal Weather Stations






























Interactive Weather Map New forecast layout! Learn more

10-Day Weather Forecast

Advertisements
Track Severe Weather on mobile